Time;durP1;ratioP1;P1;durP2;ratioP2;P2;SDS_P1;SDS_P2;PMS_P1;PMS_P2;Temp;Humidity;BMP_temperature;BMP_pressure;BME280_temperature;BME280_humidity;BME280_pressure;Samples;Min_cycle;Max_cycle;Signal;HPM_P1;HPM_P2
2022/05/03 00:02:02;;;;;;;21.15;7.03;;;;;;;10.08;100.00;101017.22;4897396;29;20021;-78
2022/05/03 00:04:44;;;;;;;24.48;7.03;;;;;;;10.21;100.00;101058.72;4898902;29;20036;-78
2022/05/03 00:07:22;;;;;;;19.15;6.80;;;;;;;10.11;100.00;101049.09;4908842;29;20100;-78
2022/05/03 00:10:07;;;;;;;20.00;6.80;;;;;;;10.05;100.00;101051.72;4915279;29;20036;-78
2022/05/03 00:12:42;;;;;;;16.65;6.38;;;;;;;10.14;100.00;101082.84;4917279;29;20032;-78
2022/05/03 00:15:08;;;;;;;15.50;7.18;;;;;;;10.09;100.00;101093.34;4916134;29;20078;-78
2022/05/03 00:17:34;;;;;;;19.10;6.70;;;;;;;9.96;100.00;101088.63;4916511;29;20349;-78
2022/05/03 00:20:01;;;;;;;23.65;7.00;;;;;;;9.75;100.00;101085.88;4901231;29;20028;-78
2022/05/03 00:22:29;;;;;;;20.02;7.07;;;;;;;9.60;100.00;101091.25;4916760;29;20469;-79
2022/05/03 00:24:55;;;;;;;18.17;6.53;;;;;;;9.52;100.00;101096.72;4897541;29;20130;-78
2022/05/03 00:27:27;;;;;;;17.58;6.10;;;;;;;9.45;100.00;101098.50;4918325;29;20115;-78
2022/05/03 00:29:55;;;;;;;16.08;6.55;;;;;;;9.43;100.00;101103.19;4898985;29;20039;-78
2022/05/03 00:32:22;;;;;;;15.60;6.65;;;;;;;9.40;100.00;101105.25;4916180;29;20127;-78
2022/05/03 00:34:49;;;;;;;19.75;7.35;;;;;;;9.36;100.00;101103.94;4898522;29;20028;-78
2022/05/03 00:37:14;;;;;;;19.27;7.40;;;;;;;9.15;100.00;101071.63;4908289;29;20032;-78
2022/05/03 00:39:40;;;;;;;19.92;7.03;;;;;;;9.31;100.00;101105.53;4894885;29;20365;-77
2022/05/03 00:42:23;;;;;;;25.60;7.15;;;;;;;8.99;100.00;101066.41;4915966;29;20553;-78
2022/05/03 00:45:03;;;;;;;18.42;7.00;;;;;;;9.14;100.00;101115.59;4899075;29;20039;-78
2022/05/03 00:47:35;;;;;;;14.25;6.38;;;;;;;9.09;100.00;101102.69;4899832;29;20466;-78
2022/05/03 00:50:32;;;;;;;19.75;7.20;;;;;;;8.99;100.00;101120.09;4898061;29;20028;-78
2022/05/03 00:53:15;;;;;;;20.23;7.32;;;;;;;8.91;100.00;101115.63;4899752;29;20434;-78
2022/05/03 00:56:14;;;;;;;22.70;6.82;;;;;;;8.78;100.00;101121.59;4915345;29;20099;-78
2022/05/03 00:59:30;;;;;;;18.95;7.47;;;;;;;8.73;100.00;101123.97;4917626;29;20040;-78
2022/05/03 01:02:06;;;;;;;17.73;6.88;;;;;;;8.66;100.00;101136.44;4822639;29;20026;-78
2022/05/03 01:05:12;;;;;;;13.05;6.70;;;;;;;8.58;100.00;101139.19;4897309;29;20028;-78
2022/05/03 01:08:00;;;;;;;22.10;6.75;;;;;;;8.44;100.00;101146.13;4888832;29;20032;-78
2022/05/03 01:10:53;;;;;;;20.98;8.00;;;;;;;8.26;100.00;101132.13;4902546;29;20028;-78
2022/05/03 01:13:30;;;;;;;20.40;7.97;;;;;;;8.28;100.00;101149.72;4917949;29;20024;-78
2022/05/03 01:16:03;;;;;;;19.38;8.02;;;;;;;8.21;100.00;101156.75;4917686;29;20035;-78
2022/05/03 01:18:45;;;;;;;23.08;8.57;;;;;;;8.13;100.00;101154.97;4920218;29;20032;-78
2022/05/03 01:21:52;;;;;;;15.90;7.97;;;;;;;8.30;100.00;101170.97;4919280;29;20052;-78
2022/05/03 01:24:32;;;;;;;19.88;8.38;;;;;;;8.18;100.00;101151.78;4902745;29;20023;-78
2022/05/03 01:27:00;;;;;;;21.60;9.27;;;;;;;8.26;100.00;101169.66;4902873;29;20180;-78
2022/05/03 01:29:31;;;;;;;19.67;9.80;;;;;;;8.16;100.00;101164.50;4903483;29;20548;-78
2022/05/03 01:32:08;;;;;;;19.00;10.32;;;;;;;8.29;100.00;101182.72;4902244;29;20032;-78
2022/05/03 01:34:34;;;;;;;21.67;11.32;;;;;;;8.30;100.00;101184.38;4887056;29;20032;-78
2022/05/03 01:37:00;;;;;;;24.38;12.00;;;;;;;8.36;100.00;101186.38;4904616;29;20076;-78
2022/05/03 01:39:28;;;;;;;22.80;11.70;;;;;;;8.42;100.00;101188.38;4921514;29;20400;-78
2022/05/03 01:42:04;;;;;;;32.13;12.45;;;;;;;8.33;100.00;101181.34;4916960;29;20459;-78
2022/05/03 01:44:38;;;;;;;23.90;12.43;;;;;;;8.36;100.00;101181.84;4917000;29;20123;-78
2022/05/03 01:47:22;;;;;;;21.02;12.10;;;;;;;8.35;100.00;101176.66;4917586;29;20028;-78
2022/05/03 01:52:49;;;;;;;28.63;12.30;;;;;;;8.44;100.00;101197.06;4917806;29;20199;-77
2022/05/03 01:55:57;;;;;;;23.27;13.10;;;;;;;8.29;100.00;101178.19;4915562;29;20059;-78
2022/05/03 01:58:41;;;;;;;23.60;11.70;;;;;;;8.32;100.00;101204.66;4917586;29;20067;-78
2022/05/03 02:01:51;;;;;;;23.67;11.07;;;;;;;8.27;100.00;101204.31;4914393;29;20032;-78
2022/05/03 02:04:23;;;;;;;12.60;7.18;;;;;;;8.17;100.00;101214.41;4874379;29;20481;-78
2022/05/03 02:06:58;;;;;;;15.13;6.90;;;;;;;8.13;100.00;101216.63;4901080;29;20079;-77
2022/05/03 02:10:04;;;;;;;11.50;6.47;;;;;;;8.08;100.00;101219.00;4916631;29;20060;-78
2022/05/03 02:12:30;;;;;;;10.98;5.82;;;;;;;8.10;100.00;101213.44;4895559;29;20127;-78
2022/05/03 02:15:04;;;;;;;8.45;5.10;;;;;;;8.06;100.00;101212.13;4915406;29;20399;-78
2022/05/03 02:18:14;;;;;;;7.85;4.32;;;;;;;8.13;100.00;101224.66;4917473;29;20103;-78
2022/05/03 02:20:57;;;;;;;9.90;3.88;;;;;;;8.16;100.00;101231.53;4912791;29;20040;-77
2022/05/03 02:23:50;;;;;;;8.10;3.92;;;;;;;8.26;100.00;101236.69;4916515;29;20080;-78
2022/05/03 02:26:28;;;;;;;7.90;3.80;;;;;;;8.23;100.00;101243.22;4917278;29;20028;-78
2022/05/03 02:29:06;;;;;;;5.70;3.38;;;;;;;8.22;100.00;101244.25;4917137;29;20020;-78
2022/05/03 02:31:57;;;;;;;4.60;3.30;;;;;;;8.25;100.00;101243.91;4916828;29;20107;-78
2022/05/03 02:34:49;;;;;;;6.50;3.20;;;;;;;8.18;100.00;101251.78;4917627;29;20083;-78
2022/05/03 02:37:16;;;;;;;6.30;3.00;;;;;;;8.15;100.00;101248.63;4916914;29;20020;-77
2022/05/03 02:40:11;;;;;;;5.47;2.75;;;;;;;7.96;100.00;101228.41;4873554;29;1291971;-78
2022/05/03 02:42:37;;;;;;;3.55;2.03;;;;;;;8.09;100.00;101250.13;4908097;29;20067;-78
2022/05/03 02:45:05;;;;;;;3.45;1.80;;;;;;;7.98;100.00;101245.16;4899578;29;20481;-78
2022/05/03 02:47:44;;;;;;;3.72;1.90;;;;;;;8.07;100.00;101267.38;4920638;29;20028;-78
2022/05/03 02:50:49;;;;;;;3.40;1.65;;;;;;;7.96;100.00;101265.91;4920513;29;20084;-78
2022/05/03 02:53:22;;;;;;;4.78;1.65;;;;;;;7.95;100.00;101264.25;4904903;29;20096;-78
2022/05/03 02:55:58;;;;;;;2.58;1.48;;;;;;;7.85;100.00;101266.28;4915904;29;20057;-78
2022/05/03 02:58:35;;;;;;;3.63;1.50;;;;;;;7.82;100.00;101264.78;4917494;29;20039;-78
2022/05/03 03:04:22;;;;;;;3.03;1.02;;;;;;;7.68;100.00;101276.16;4917366;29;20430;-77
2022/05/03 03:06:53;;;;;;;3.25;1.25;;;;;;;7.49;100.00;101258.59;4915868;29;20439;-78
2022/05/03 03:09:26;;;;;;;2.15;0.90;;;;;;;7.59;100.00;101269.97;4916786;29;20043;-77
2022/05/03 03:12:10;;;;;;;3.13;0.88;;;;;;;7.58;100.00;101280.84;4900080;29;20373;-78
2022/05/03 03:14:55;;;;;;;1.25;0.68;;;;;;;7.54;100.00;101283.84;4916512;29;20043;-78
2022/05/03 03:17:28;;;;;;;1.65;0.70;;;;;;;7.60;100.00;101300.28;4918331;29;20034;-77
2022/05/03 03:19:59;;;;;;;1.23;0.50;;;;;;;7.58;99.67;101295.06;4917005;29;20366;-78
2022/05/03 03:22:29;;;;;;;1.95;0.63;;;;;;;7.60;99.75;101292.25;4917039;29;20111;-78
2022/05/03 03:24:58;;;;;;;0.82;0.40;;;;;;;7.51;95.80;101308.28;4914868;29;20066;-77
2022/05/03 03:27:26;;;;;;;1.48;0.50;;;;;;;7.55;97.46;101311.50;4917348;29;20056;-78
2022/05/03 03:29:55;;;;;;;2.00;0.50;;;;;;;7.56;96.07;101320.38;4902321;29;20054;-77
2022/05/03 03:32:24;;;;;;;0.90;0.50;;;;;;;7.50;95.52;101324.53;4901973;29;20040;-78
2022/05/03 03:34:53;;;;;;;0.82;0.40;;;;;;;7.50;94.23;101314.66;4900613;29;20032;-77
2022/05/03 03:37:22;;;;;;;1.60;0.35;;;;;;;7.44;94.20;101315.31;4914406;29;20025;-78
2022/05/03 03:39:47;;;;;;;1.95;0.50;;;;;;;7.45;95.27;101322.38;4916370;29;20044;-78
2022/05/03 03:42:13;;;;;;;2.10;0.47;;;;;;;7.44;92.96;101328.72;4918719;29;20052;-77
2022/05/03 03:44:38;;;;;;;0.77;0.30;;;;;;;7.45;94.53;101334.91;4914960;29;20020;-78
2022/05/03 03:47:04;;;;;;;1.08;0.40;;;;;;;7.55;95.50;101330.25;4898094;29;20032;-78
2022/05/03 03:49:30;;;;;;;1.30;0.45;;;;;;;7.53;94.65;101341.09;4914957;29;20054;-78
2022/05/03 03:51:57;;;;;;;2.00;0.70;;;;;;;7.93;92.73;101328.72;4917436;29;20028;-78
2022/05/03 03:54:23;;;;;;;1.23;0.47;;;;;;;8.17;89.23;101322.47;4916325;29;20035;-77
2022/05/03 03:56:50;;;;;;;1.48;0.40;;;;;;;8.65;88.71;101352.91;4916977;29;20195;-78
2022/05/03 03:59:16;;;;;;;0.63;0.50;;;;;;;8.51;86.88;101337.53;4921083;29;20043;-78
2022/05/03 04:01:43;;;;;;;4.35;0.50;;;;;;;8.75;84.53;101373.34;4916262;29;20418;-78
2022/05/03 04:04:09;;;;;;;0.75;0.40;;;;;;;8.79;83.43;101356.69;4917292;29;20460;-77
2022/05/03 04:06:35;;;;;;;2.15;0.40;;;;;;;9.23;67.31;101372.25;4914641;29;20024;-77
2022/05/03 04:09:01;;;;;;;0.90;0.40;;;;;;;9.14;65.94;101322.31;4917105;29;20036;-77
2022/05/03 04:11:27;;;;;;;1.48;0.40;;;;;;;9.52;64.07;101376.94;4914528;29;20032;-77
2022/05/03 04:13:52;;;;;;;0.50;0.30;;;;;;;9.41;63.32;101375.50;4915378;29;20032;-78
2022/05/03 04:16:19;;;;;;;1.13;0.50;;;;;;;9.49;62.27;101354.97;4898798;29;20061;-77
2022/05/03 04:18:45;;;;;;;1.00;0.40;;;;;;;9.62;62.01;101398.22;4916435;29;20046;-78
2022/05/03 04:21:18;;;;;;;1.52;0.50;;;;;;;10.08;60.16;101399.03;4914570;29;20020;-77
2022/05/03 04:23:45;;;;;;;1.15;0.38;;;;;;;10.00;59.75;101407.19;4915914;29;20039;-79
2022/05/03 04:26:11;;;;;;;0.77;0.15;;;;;;;10.02;58.83;101402.44;4915384;29;20440;-78
2022/05/03 04:28:37;;;;;;;1.15;0.30;;;;;;;9.87;58.91;101415.84;4899839;29;20039;-78
2022/05/03 04:31:02;;;;;;;1.05;0.40;;;;;;;10.15;57.68;101417.97;4915020;29;20032;-80
2022/05/03 04:33:27;;;;;;;0.75;0.30;;;;;;;10.41;57.01;101406.00;4916850;29;20040;-78
2022/05/03 04:35:53;;;;;;;0.30;0.20;;;;;;;10.55;56.10;101421.31;4915255;29;20047;-79
2022/05/03 04:38:18;;;;;;;2.10;0.40;;;;;;;10.47;54.70;101406.09;4898883;29;20456;-78
2022/05/03 04:40:43;;;;;;;0.63;0.40;;;;;;;10.22;55.38;101434.22;4918732;29;20048;-78
2022/05/03 04:43:10;;;;;;;1.15;0.30;;;;;;;10.05;54.53;101430.81;4905936;29;20051;-79
2022/05/03 04:45:36;;;;;;;1.52;0.30;;;;;;;10.31;54.11;101423.22;4899782;29;20028;-80
2022/05/03 04:48:01;;;;;;;0.98;0.32;;;;;;;10.38;53.59;101435.97;4917193;29;20456;-77
2022/05/03 04:50:26;;;;;;;0.40;0.20;;;;;;;10.43;53.76;101460.44;4923133;29;20530;-79
2022/05/03 04:52:52;;;;;;;0.85;0.30;;;;;;;10.19;52.57;101454.22;4902458;29;20482;-77
2022/05/03 04:55:17;;;;;;;0.73;0.20;;;;;;;10.27;51.83;101446.16;4917936;29;20048;-77
2022/05/03 04:57:42;;;;;;;0.63;0.30;;;;;;;10.50;52.28;101450.66;4920053;29;20024;-79
2022/05/03 05:00:08;;;;;;;0.68;0.43;;;;;;;9.78;50.66;101442.97;4918053;29;20057;-77
2022/05/03 05:02:34;;;;;;;1.80;0.40;;;;;;;10.00;51.58;101463.63;4902379;29;20028;-77
2022/05/03 05:04:59;;;;;;;2.92;0.30;;;;;;;9.87;50.33;101456.16;4919815;29;20036;-79
2022/05/03 05:07:24;;;;;;;2.65;0.30;;;;;;;10.42;51.23;101458.78;4919250;29;20035;-78
2022/05/03 05:12:34;;;;;;;1.20;0.30;;;;;;;10.29;49.38;101457.53;4919384;29;20107;-78
2022/05/03 05:14:59;;;;;;;2.15;0.50;;;;;;;10.82;49.25;101474.53;4919671;29;20451;-77
2022/05/03 05:17:25;;;;;;;3.90;0.40;;;;;;;10.52;48.24;101462.06;4919030;29;20024;-76
2022/05/03 05:19:50;;;;;;;1.98;0.50;;;;;;;10.47;48.37;101469.84;4919345;29;20052;-75
2022/05/03 05:22:15;;;;;;;1.88;0.47;;;;;;;10.68;48.26;101467.28;4898621;29;20399;-76
2022/05/03 05:24:41;;;;;;;2.20;0.40;;;;;;;9.58;50.65;101477.50;4891405;29;20369;-75
2022/05/03 05:27:06;;;;;;;2.17;0.50;;;;;;;8.80;51.46;101476.44;4919844;29;20071;-75
2022/05/03 05:29:31;;;;;;;2.90;0.30;;;;;;;8.79;52.13;101480.13;4902494;29;20098;-76
2022/05/03 05:31:59;;;;;;;1.42;0.30;;;;;;;8.91;51.83;101476.09;4919595;29;20032;-77
2022/05/03 05:34:24;;;;;;;2.83;0.30;;;;;;;9.05;52.34;101484.44;4918336;29;20036;-76
2022/05/03 05:36:50;;;;;;;3.15;0.55;;;;;;;9.01;50.51;101464.31;4918162;29;20028;-76
2022/05/03 05:39:15;;;;;;;1.33;0.38;;;;;;;8.67;49.96;101479.63;4918374;29;20471;-76
2022/05/03 05:41:40;;;;;;;3.95;0.60;;;;;;;8.67;50.33;101492.22;4902404;29;20052;-75
2022/05/03 05:44:06;;;;;;;2.38;0.40;;;;;;;8.45;48.22;101473.16;4916982;29;20032;-75
2022/05/03 05:46:31;;;;;;;0.95;0.30;;;;;;;8.81;50.10;101488.88;4919372;29;20340;-76
2022/05/03 05:48:56;;;;;;;4.40;0.68;;;;;;;8.77;50.19;101484.81;4918823;29;20071;-76
2022/05/03 05:51:22;;;;;;;4.10;0.57;;;;;;;9.08;49.55;101493.00;4914906;29;20132;-77
2022/05/03 05:53:47;;;;;;;3.10;0.50;;;;;;;9.09;47.73;101485.75;4917934;29;20067;-76
2022/05/03 05:56:14;;;;;;;2.97;0.57;;;;;;;9.03;47.67;101486.44;4886329;29;20040;-76
2022/05/03 05:58:39;;;;;;;1.85;0.70;;;;;;;8.91;47.21;101497.56;4904408;29;20036;-76
2022/05/03 06:01:05;;;;;;;0.60;0.30;;;;;;;9.02;46.87;101499.03;4917995;29;20499;-77
2022/05/03 06:03:32;;;;;;;4.55;0.50;;;;;;;9.00;47.14;101495.69;4916973;29;20090;-76
2022/05/03 06:05:58;;;;;;;2.42;0.47;;;;;;;9.19;46.54;101497.13;4918407;29;20035;-76
2022/05/03 06:08:25;;;;;;;0.65;0.30;;;;;;;9.27;46.12;101498.94;4917105;29;20035;-76
2022/05/03 06:10:51;;;;;;;1.52;0.50;;;;;;;9.06;45.22;101465.47;4916958;29;20036;-76
2022/05/03 06:13:17;;;;;;;1.92;0.43;;;;;;;9.39;45.86;101506.47;4901595;29;20443;-76
2022/05/03 06:15:43;;;;;;;1.77;0.73;;;;;;;9.50;42.80;101512.47;4916160;29;20032;-76
2022/05/03 06:18:10;;;;;;;1.83;0.40;;;;;;;9.53;43.42;101512.09;4923282;29;20039;-77
2022/05/03 06:20:36;;;;;;;2.05;0.40;;;;;;;9.58;41.20;101515.13;4921064;29;20088;-77
2022/05/03 06:23:03;;;;;;;2.42;0.45;;;;;;;9.39;40.59;101500.25;4916076;29;20459;-77
2022/05/03 06:25:29;;;;;;;1.55;0.47;;;;;;;9.73;40.71;101528.63;4909371;29;20036;-77
2022/05/03 06:27:54;;;;;;;2.50;0.60;;;;;;;9.59;40.32;101506.88;4914319;29;20066;-77
2022/05/03 06:30:19;;;;;;;1.17;0.20;;;;;;;9.76;40.37;101518.38;4896646;29;20040;-77
2022/05/03 06:32:45;;;;;;;1.60;0.40;;;;;;;9.80;40.41;101522.41;4914424;29;20024;-77
2022/05/03 06:35:12;;;;;;;2.47;0.57;;;;;;;9.84;40.06;101520.19;4912717;29;20020;-77
2022/05/03 06:37:39;;;;;;;1.55;0.68;;;;;;;10.13;41.04;101519.50;4914811;29;20039;-77
2022/05/03 06:40:09;;;;;;;3.47;0.55;;;;;;;10.12;40.67;101533.97;4916188;29;20044;-77
2022/05/03 06:42:39;;;;;;;1.90;0.40;;;;;;;10.02;38.85;101544.94;4913652;29;20035;-76
2022/05/03 06:45:09;;;;;;;1.98;0.40;;;;;;;10.12;39.55;101529.41;4914127;29;20536;-76
2022/05/03 06:47:34;;;;;;;4.45;0.50;;;;;;;10.27;40.46;101534.91;4912197;29;20458;-76
2022/05/03 06:50:00;;;;;;;1.30;0.40;;;;;;;10.12;40.32;101536.66;4911169;29;20032;-75
2022/05/03 06:52:27;;;;;;;1.95;0.30;;;;;;;10.21;39.97;101546.34;4911901;29;20417;-76
2022/05/03 06:54:52;;;;;;;3.38;0.40;;;;;;;10.00;40.54;101536.25;4900456;29;20367;-76
2022/05/03 06:57:19;;;;;;;1.67;0.43;;;;;;;10.18;40.76;101529.72;4913297;29;20070;-75
2022/05/03 06:59:45;;;;;;;1.90;0.38;;;;;;;10.32;39.76;101521.75;4897789;29;20370;-76
2022/05/03 07:02:10;;;;;;;2.50;0.40;;;;;;;10.48;40.84;101554.94;4897277;29;20036;-76
2022/05/03 07:04:36;;;;;;;3.72;0.40;;;;;;;10.54;39.00;101554.22;4915594;29;20047;-76
2022/05/03 07:07:01;;;;;;;2.38;0.60;;;;;;;10.27;39.15;101572.56;4918221;29;20083;-77
2022/05/03 07:12:02;;;;;;;4.07;0.50;;;;;;;10.43;39.17;101554.63;4995221;23;20078;-78
2022/05/03 07:14:27;;;;;;;3.88;0.50;;;;;;;10.62;40.23;101578.34;4937433;29;20032;-78
2022/05/03 07:16:52;;;;;;;5.15;0.45;;;;;;;10.60;40.22;101576.88;4919352;29;20435;-80
2022/05/03 07:24:46;;;;;;;2.40;0.50;;;;;;;10.56;40.23;101588.00;4921741;29;20179;-80
2022/05/03 07:27:13;;;;;;;1.38;0.40;;;;;;;10.64;39.66;101592.47;4932689;29;20130;-81
2022/05/03 07:29:38;;;;;;;8.77;0.40;;;;;;;10.51;39.35;101581.47;4904278;29;20031;-81
2022/05/03 07:32:04;;;;;;;1.23;0.32;;;;;;;10.50;39.64;101595.97;4936321;29;20038;-80
2022/05/03 07:34:29;;;;;;;3.33;0.65;;;;;;;10.52;40.79;101600.13;4935414;29;20046;-80
2022/05/03 07:36:54;;;;;;;4.15;0.47;;;;;;;10.60;39.55;101596.56;4935865;29;20082;-80
2022/05/03 07:39:20;;;;;;;2.63;0.50;;;;;;;10.58;39.61;101599.41;4934992;29;20411;-80
2022/05/03 07:41:45;;;;;;;2.28;0.40;;;;;;;10.75;40.22;101602.81;4938576;29;20091;-81
2022/05/03 07:44:12;;;;;;;2.05;0.30;;;;;;;10.75;39.80;101596.59;4922762;29;20139;-81
2022/05/03 07:46:37;;;;;;;2.83;0.50;;;;;;;11.11;39.42;101607.53;4902767;29;20366;-80
2022/05/03 07:49:04;;;;;;;1.13;0.45;;;;;;;11.14;39.12;101604.50;4916823;29;20031;-81
2022/05/03 07:51:29;;;;;;;1.92;0.40;;;;;;;10.78;37.34;101609.69;4916416;29;20103;-81
2022/05/03 07:53:54;;;;;;;1.52;0.47;;;;;;;11.03;37.89;101619.25;4933450;29;20027;-81
2022/05/03 07:56:20;;;;;;;1.20;0.30;;;;;;;11.37;37.65;101615.22;4936056;29;20040;-81
2022/05/03 07:58:47;;;;;;;1.58;0.32;;;;;;;11.00;36.09;101600.75;4937813;29;20102;-83
2022/05/03 08:01:13;;;;;;;2.92;0.30;;;;;;;10.96;37.08;101623.69;4921401;29;20434;-81
2022/05/03 08:03:39;;;;;;;1.25;0.40;;;;;;;10.92;37.27;101622.34;4921111;29;20047;-80
2022/05/03 08:06:04;;;;;;;0.98;0.30;;;;;;;11.04;36.90;101626.28;4919018;29;20027;-80
2022/05/03 08:08:29;;;;;;;3.00;0.43;;;;;;;10.95;35.76;101624.69;4936800;29;20359;-80
2022/05/03 08:10:55;;;;;;;2.15;0.50;;;;;;;10.82;35.59;101632.53;4921720;29;20063;-81
2022/05/03 08:13:20;;;;;;;2.22;0.40;;;;;;;10.68;36.20;101615.31;4922309;29;20046;-81
2022/05/03 08:15:47;;;;;;;2.60;0.50;;;;;;;10.93;36.54;101640.22;4942162;29;20023;-81
2022/05/03 08:18:13;;;;;;;1.55;0.40;;;;;;;10.99;36.20;101630.53;4944487;29;20051;-81
2022/05/03 08:20:39;;;;;;;2.45;0.50;;;;;;;10.95;36.12;101638.16;4948571;29;20034;-81
2022/05/03 08:23:04;;;;;;;1.25;0.30;;;;;;;10.97;35.75;101629.91;4935223;29;20059;-81
2022/05/03 08:25:32;;;;;;;1.63;0.50;;;;;;;10.83;37.15;101588.47;4942931;29;20016;-82
2022/05/03 08:27:58;;;;;;;1.13;0.32;;;;;;;11.10;36.33;101583.50;4930949;29;20092;-80
2022/05/03 08:30:24;;;;;;;1.20;0.55;;;;;;;11.31;35.99;101647.44;4907124;29;20072;-82
2022/05/03 08:32:51;;;;;;;1.45;0.35;;;;;;;11.22;35.13;101634.03;4941886;29;20036;-80
2022/05/03 08:35:17;;;;;;;1.52;0.30;;;;;;;11.35;35.94;101648.75;4924690;29;20028;-80
2022/05/03 08:43:11;;;;;;;2.65;0.40;;;;;;;11.53;34.97;101660.03;4938624;29;20083;-81
2022/05/03 08:45:36;;;;;;;2.95;0.40;;;;;;;11.48;35.15;101648.94;4923604;29;20040;-80
2022/05/03 08:48:02;;;;;;;1.48;0.40;;;;;;;11.36;35.99;101651.25;4942217;29;20048;-81
2022/05/03 08:50:30;;;;;;;2.40;0.47;;;;;;;11.47;36.09;101652.66;4940758;29;20036;-80
2022/05/03 08:53:00;;;;;;;1.08;0.40;;;;;;;11.15;36.03;101665.41;4925649;29;20051;-80
2022/05/03 08:55:27;;;;;;;1.63;0.38;;;;;;;11.40;35.58;101655.25;4921647;29;20047;-81
2022/05/03 08:57:52;;;;;;;1.35;0.43;;;;;;;11.41;35.89;101661.47;4936936;29;20031;-81
2022/05/03 09:00:19;;;;;;;1.38;0.30;;;;;;;11.21;35.01;101659.31;4944658;29;20517;-80
2022/05/03 09:02:54;;;;;;;1.52;0.38;;;;;;;11.43;35.58;101662.97;4923910;29;20223;-81
2022/05/03 09:05:22;;;;;;;1.67;0.40;;;;;;;11.88;36.32;101654.94;4939506;29;20058;-81
2022/05/03 09:07:49;;;;;;;2.47;0.55;;;;;;;11.68;35.35;101647.38;4922247;29;20058;-80
2022/05/03 09:10:18;;;;;;;1.25;0.30;;;;;;;11.64;34.59;101662.25;4935122;29;20063;-81
2022/05/03 09:12:44;;;;;;;1.13;0.30;;;;;;;11.67;34.17;101650.25;4918622;29;20043;-80
2022/05/03 09:15:11;;;;;;;1.77;0.50;;;;;;;12.04;34.43;101659.28;4917294;29;20040;-81
2022/05/03 09:17:44;;;;;;;2.17;0.60;;;;;;;11.88;33.38;101653.06;4918927;29;20012;-81
2022/05/03 09:25:56;;;;;;;1.38;0.30;;;;;;;12.13;35.02;101653.59;4919080;29;20422;-82
2022/05/03 09:28:23;;;;;;;2.47;0.32;;;;;;;11.67;34.51;101664.56;4922759;29;20083;-80
2022/05/03 09:30:51;;;;;;;3.17;0.40;;;;;;;11.85;34.21;101666.09;4920882;29;20562;-81
2022/05/03 09:33:23;;;;;;;1.13;0.20;;;;;;;12.20;33.40;101675.28;4906147;29;20031;-80
2022/05/03 09:35:50;;;;;;;2.05;0.45;;;;;;;12.12;33.19;101668.13;4926278;29;20039;-81
2022/05/03 09:38:15;;;;;;;1.05;0.40;;;;;;;12.23;33.28;101664.94;4907622;29;20032;-81
2022/05/03 09:40:44;;;;;;;1.27;0.38;;;;;;;12.51;33.27;101656.13;4916394;29;20036;-81
2022/05/03 09:43:11;;;;;;;5.40;0.40;;;;;;;12.69;33.01;101672.72;4918719;29;20031;-81
2022/05/03 09:45:37;;;;;;;3.05;0.47;;;;;;;12.48;33.01;101667.28;4923715;29;20032;-82
2022/05/03 09:48:04;;;;;;;1.95;0.50;;;;;;;12.39;33.63;101657.66;4911952;29;20057;-81
2022/05/03 09:50:29;;;;;;;1.50;0.40;;;;;;;12.59;33.68;101650.63;4925731;29;20029;-81
2022/05/03 09:52:56;;;;;;;1.52;0.40;;;;;;;12.64;33.70;101658.13;4907218;29;20151;-82
2022/05/03 09:55:32;;;;;;;1.00;0.30;;;;;;;12.72;32.96;101657.19;4902258;29;20027;-81
2022/05/03 09:58:03;;;;;;;0.95;0.40;;;;;;;12.53;33.38;101640.56;4916902;29;20032;-82
2022/05/03 10:00:31;;;;;;;3.25;0.30;;;;;;;12.56;33.25;101653.69;4917607;29;20027;-82
2022/05/03 10:02:58;;;;;;;0.90;0.40;;;;;;;12.87;32.79;101655.25;4914093;29;20035;-80
2022/05/03 10:05:24;;;;;;;2.42;0.30;;;;;;;12.56;31.98;101675.28;4914001;29;20102;-79
2022/05/03 10:07:51;;;;;;;4.65;0.90;;;;;;;12.74;32.70;101674.84;4902337;29;20176;-79
2022/05/03 10:10:16;;;;;;;2.35;0.50;;;;;;;12.86;31.90;101662.50;4911328;29;20055;-80
2022/05/03 10:12:46;;;;;;;1.30;0.40;;;;;;;13.05;31.28;101662.91;4907297;29;20110;-79
2022/05/03 10:15:13;;;;;;;0.85;0.47;;;;;;;12.94;31.71;101662.38;4921042;29;20039;-79
2022/05/03 10:20:43;;;;;;;0.88;0.30;;;;;;;13.05;31.70;101660.19;4933411;29;20046;-79
2022/05/03 10:23:35;;;;;;;0.90;0.30;;;;;;;13.23;31.64;101663.25;4934048;29;20032;-80
2022/05/03 10:26:20;;;;;;;1.00;0.30;;;;;;;13.35;31.43;101659.00;4941545;29;20028;-79
2022/05/03 10:29:06;;;;;;;1.37;0.37;;;;;;;12.99;30.36;101655.56;4917857;29;20118;-79
2022/05/03 10:31:31;;;;;;;2.50;0.30;;;;;;;13.14;31.66;101654.47;4934529;29;20259;-78
2022/05/03 10:33:59;;;;;;;0.70;0.30;;;;;;;13.19;31.58;101645.75;4919667;29;20046;-79
2022/05/03 10:36:34;;;;;;;0.60;0.20;;;;;;;13.30;30.43;101661.47;4935642;29;20126;-79
2022/05/03 10:39:19;;;;;;;0.77;0.40;;;;;;;13.19;28.90;101658.44;4917374;29;20032;-78
2022/05/03 10:42:14;;;;;;;0.57;0.20;;;;;;;13.67;28.68;101651.31;4938559;29;20525;-81
2022/05/03 10:44:46;;;;;;;1.00;0.30;;;;;;;13.67;29.84;101639.66;4906977;29;20102;-79
2022/05/03 10:47:38;;;;;;;2.55;0.40;;;;;;;13.51;29.44;101638.97;4935063;29;20062;-79
2022/05/03 10:50:12;;;;;;;4.72;0.30;;;;;;;13.66;29.23;101646.13;4934038;29;20397;-78
2022/05/03 10:52:42;;;;;;;0.80;0.30;;;;;;;13.53;29.27;101654.97;4921731;29;20111;-78
2022/05/03 10:55:09;;;;;;;0.82;0.32;;;;;;;13.61;29.33;101644.84;4923312;29;20028;-80
2022/05/03 10:58:12;;;;;;;1.98;0.40;;;;;;;13.88;29.49;101645.00;4920078;29;20038;-78
2022/05/03 11:01:09;;;;;;;2.45;0.40;;;;;;;13.95;30.25;101648.56;4937980;29;20517;-80
2022/05/03 11:04:01;;;;;;;0.50;0.15;;;;;;;13.84;31.51;101647.28;4911504;29;20055;-79
2022/05/03 11:06:26;;;;;;;0.95;0.32;;;;;;;13.75;31.78;101656.56;4931826;29;20035;-79
2022/05/03 11:08:57;;;;;;;0.95;0.20;;;;;;;13.83;31.54;101652.88;4932289;29;20047;-78
2022/05/03 11:11:37;;;;;;;0.63;0.20;;;;;;;13.48;29.56;101652.88;4916252;29;20478;-79
2022/05/03 11:14:19;;;;;;;1.05;0.20;;;;;;;13.46;29.83;101637.88;4936686;29;20377;-78
2022/05/03 11:16:45;;;;;;;1.50;0.43;;;;;;;13.69;29.48;101646.53;4935802;29;20045;-79
2022/05/03 11:19:13;;;;;;;0.68;0.25;;;;;;;13.57;28.19;101635.44;4917904;29;20469;-79
2022/05/03 11:21:39;;;;;;;0.20;0.20;;;;;;;13.54;28.75;101649.38;4917878;29;20366;-78
2022/05/03 11:24:05;;;;;;;2.47;0.30;;;;;;;13.61;28.31;101646.72;4901441;29;20047;-79
2022/05/03 11:26:31;;;;;;;2.47;0.22;;;;;;;13.44;28.96;101654.28;4931737;29;20024;-78
2022/05/03 11:28:58;;;;;;;0.73;0.30;;;;;;;13.57;28.82;101634.59;4912972;29;20039;-78
2022/05/03 11:31:25;;;;;;;1.23;0.55;;;;;;;13.67;30.04;101631.53;4916662;29;20032;-80
2022/05/03 11:33:53;;;;;;;0.52;0.20;;;;;;;13.60;29.20;101647.72;4933182;29;20028;-77
2022/05/03 11:36:20;;;;;;;1.55;0.10;;;;;;;13.60;27.94;101647.72;4934476;29;20194;-77
2022/05/03 11:38:49;;;;;;;0.38;0.20;;;;;;;13.74;27.21;101643.22;4936351;29;20506;-77
2022/05/03 11:41:19;;;;;;;1.35;0.30;;;;;;;13.90;29.12;101652.91;4933565;29;20051;-79
2022/05/03 11:43:45;;;;;;;1.80;0.40;;;;;;;13.96;29.23;101658.34;4935561;29;20126;-78
2022/05/03 11:46:10;;;;;;;0.85;0.28;;;;;;;13.96;28.54;101652.94;4937536;29;20044;-79
2022/05/03 11:48:37;;;;;;;3.72;0.30;;;;;;;14.12;29.74;101651.75;4906605;29;20031;-78
2022/05/03 11:56:34;;;;;;;1.15;0.40;;;;;;;13.78;33.90;101656.19;4932672;29;20058;-78
2022/05/03 11:59:00;;;;;;;1.05;0.30;;;;;;;13.39;37.11;101644.06;4934568;29;20032;-78
2022/05/03 12:01:33;;;;;;;0.65;0.20;;;;;;;13.25;37.38;101665.81;4937086;29;20039;-78
2022/05/03 12:03:59;;;;;;;0.65;0.28;;;;;;;13.09;36.13;101653.38;4913795;29;20035;-80
2022/05/03 12:06:43;;;;;;;3.47;0.75;;;;;;;13.03;36.43;101654.97;4920017;29;20039;-79
2022/05/03 12:09:16;;;;;;;1.13;0.20;;;;;;;12.94;37.02;101658.84;4915302;29;20028;-79
2022/05/03 12:14:36;;;;;;;1.23;0.30;;;;;;;12.55;36.80;101634.97;4926426;29;20538;-78
2022/05/03 12:17:02;;;;;;;2.25;0.40;;;;;;;12.87;36.21;101649.84;4911047;29;20068;-78
2022/05/03 12:19:35;;;;;;;0.60;0.30;;;;;;;12.81;36.26;101646.03;4918305;29;20032;-77
2022/05/03 12:22:12;;;;;;;1.25;0.50;;;;;;;12.67;35.84;101644.25;4925203;29;20032;-79